sensor_id;sensor_type;location;lat;lon;timestamp;temperature;humidity
54431;DHT22;40342;52.998;5.862;2023-11-22T00:01:49;4.90;99.90
54431;DHT22;40342;52.998;5.862;2023-11-22T00:04:15;4.80;99.90
54431;DHT22;40342;52.998;5.862;2023-11-22T00:06:41;4.70;99.90
54431;DHT22;40342;52.998;5.862;2023-11-22T00:09:06;4.80;99.90
54431;DHT22;40342;52.998;5.862;2023-11-22T00:11:32;4.70;99.90
54431;DHT22;40342;52.998;5.862;2023-11-22T00:13:58;4.70;99.90
54431;DHT22;40342;52.998;5.862;2023-11-22T00:16:23;4.60;99.90
54431;DHT22;40342;52.998;5.862;2023-11-22T00:18:49;4.60;99.90
54431;DHT22;40342;52.998;5.862;2023-11-22T00:21:15;4.60;99.90
54431;DHT22;40342;52.998;5.862;2023-11-22T00:23:40;4.60;99.90
54431;DHT22;40342;52.998;5.862;2023-11-22T00:26:06;4.60;99.90
54431;DHT22;40342;52.998;5.862;2023-11-22T00:28:32;4.60;99.90
54431;DHT22;40342;52.998;5.862;2023-11-22T00:30:58;4.60;99.90
54431;DHT22;40342;52.998;5.862;2023-11-22T00:33:24;4.60;99.90
54431;DHT22;40342;52.998;5.862;2023-11-22T00:35:49;4.50;99.90
54431;DHT22;40342;52.998;5.862;2023-11-22T00:38:15;4.50;99.90
54431;DHT22;40342;52.998;5.862;2023-11-22T00:40:42;4.50;99.90
54431;DHT22;40342;52.998;5.862;2023-11-22T00:43:07;4.50;99.90
54431;DHT22;40342;52.998;5.862;2023-11-22T00:45:33;4.50;99.90
54431;DHT22;40342;52.998;5.862;2023-11-22T00:48:00;4.50;99.90
54431;DHT22;40342;52.998;5.862;2023-11-22T00:50:26;4.50;99.90
54431;DHT22;40342;52.998;5.862;2023-11-22T00:52:51;4.40;99.90
54431;DHT22;40342;52.998;5.862;2023-11-22T00:55:17;4.40;99.90
54431;DHT22;40342;52.998;5.862;2023-11-22T00:57:43;4.40;99.90
54431;DHT22;40342;52.998;5.862;2023-11-22T01:00:09;4.40;99.90
54431;DHT22;40342;52.998;5.862;2023-11-22T01:02:36;4.40;99.90
54431;DHT22;40342;52.998;5.862;2023-11-22T01:05:05;4.40;99.90
54431;DHT22;40342;52.998;5.862;2023-11-22T01:07:33;4.40;99.90
54431;DHT22;40342;52.998;5.862;2023-11-22T01:09:59;4.30;99.90
54431;DHT22;40342;52.998;5.862;2023-11-22T01:12:24;4.30;99.90
54431;DHT22;40342;52.998;5.862;2023-11-22T01:14:50;4.30;99.90
54431;DHT22;40342;52.998;5.862;2023-11-22T01:17:15;4.30;99.90
54431;DHT22;40342;52.998;5.862;2023-11-22T01:19:41;4.30;99.90
54431;DHT22;40342;52.998;5.862;2023-11-22T01:22:06;4.30;99.90
54431;DHT22;40342;52.998;5.862;2023-11-22T01:24:32;4.30;99.90
54431;DHT22;40342;52.998;5.862;2023-11-22T01:26:57;4.20;99.90
54431;DHT22;40342;52.998;5.862;2023-11-22T01:29:23;4.20;99.90
54431;DHT22;40342;52.998;5.862;2023-11-22T01:31:49;4.20;99.90
54431;DHT22;40342;52.998;5.862;2023-11-22T01:34:15;4.20;99.90
54431;DHT22;40342;52.998;5.862;2023-11-22T01:36:43;4.20;99.90
54431;DHT22;40342;52.998;5.862;2023-11-22T01:39:11;4.10;99.90
54431;DHT22;40342;52.998;5.862;2023-11-22T01:41:38;4.10;99.90
54431;DHT22;40342;52.998;5.862;2023-11-22T01:44:04;4.10;99.90
54431;DHT22;40342;52.998;5.862;2023-11-22T01:46:30;4.10;99.90
54431;DHT22;40342;52.998;5.862;2023-11-22T01:48:56;4.10;99.90
54431;DHT22;40342;52.998;5.862;2023-11-22T01:51:22;4.10;99.90
54431;DHT22;40342;52.998;5.862;2023-11-22T01:53:50;4.10;99.90
54431;DHT22;40342;52.998;5.862;2023-11-22T01:56:20;4.00;99.90
54431;DHT22;40342;52.998;5.862;2023-11-22T01:58:46;4.10;99.90
54431;DHT22;40342;52.998;5.862;2023-11-22T02:01:12;4.00;99.90
54431;DHT22;40342;52.998;5.862;2023-11-22T02:03:38;4.00;99.90
54431;DHT22;40342;52.998;5.862;2023-11-22T02:06:05;4.00;99.90
54431;DHT22;40342;52.998;5.862;2023-11-22T02:08:31;4.00;99.90
54431;DHT22;40342;52.998;5.862;2023-11-22T02:10:58;4.00;99.90
54431;DHT22;40342;52.998;5.862;2023-11-22T02:13:31;4.00;99.90
54431;DHT22;40342;52.998;5.862;2023-11-22T02:15:57;4.00;99.90
54431;DHT22;40342;52.998;5.862;2023-11-22T02:18:25;3.90;99.90
54431;DHT22;40342;52.998;5.862;2023-11-22T02:20:51;3.90;99.90
54431;DHT22;40342;52.998;5.862;2023-11-22T02:23:17;3.90;99.90
54431;DHT22;40342;52.998;5.862;2023-11-22T02:25:42;3.90;99.90
54431;DHT22;40342;52.998;5.862;2023-11-22T02:28:08;3.90;99.90
54431;DHT22;40342;52.998;5.862;2023-11-22T02:30:34;3.90;99.90
54431;DHT22;40342;52.998;5.862;2023-11-22T02:33:00;3.90;99.90
54431;DHT22;40342;52.998;5.862;2023-11-22T02:35:26;3.80;99.90
54431;DHT22;40342;52.998;5.862;2023-11-22T02:37:52;3.80;99.90
54431;DHT22;40342;52.998;5.862;2023-11-22T02:40:19;3.80;99.90
54431;DHT22;40342;52.998;5.862;2023-11-22T02:42:47;3.80;99.90
54431;DHT22;40342;52.998;5.862;2023-11-22T02:45:15;3.80;99.90
54431;DHT22;40342;52.998;5.862;2023-11-22T02:47:41;3.70;99.90
54431;DHT22;40342;52.998;5.862;2023-11-22T02:50:12;3.60;99.90
54431;DHT22;40342;52.998;5.862;2023-11-22T02:52:37;3.60;99.90
54431;DHT22;40342;52.998;5.862;2023-11-22T02:55:04;3.50;99.90
54431;DHT22;40342;52.998;5.862;2023-11-22T02:57:32;3.50;99.90
54431;DHT22;40342;52.998;5.862;2023-11-22T02:59:58;3.50;99.90
54431;DHT22;40342;52.998;5.862;2023-11-22T03:02:24;3.50;99.90
54431;DHT22;40342;52.998;5.862;2023-11-22T03:04:50;3.50;99.90
54431;DHT22;40342;52.998;5.862;2023-11-22T03:07:16;3.50;99.90
54431;DHT22;40342;52.998;5.862;2023-11-22T03:09:42;3.50;99.90
54431;DHT22;40342;52.998;5.862;2023-11-22T03:12:09;3.40;99.90
54431;DHT22;40342;52.998;5.862;2023-11-22T03:14:35;3.40;99.90
54431;DHT22;40342;52.998;5.862;2023-11-22T03:17:01;3.40;99.90
54431;DHT22;40342;52.998;5.862;2023-11-22T03:19:27;3.40;99.90
54431;DHT22;40342;52.998;5.862;2023-11-22T03:21:52;3.40;99.90
54431;DHT22;40342;52.998;5.862;2023-11-22T03:24:18;3.40;99.90
54431;DHT22;40342;52.998;5.862;2023-11-22T03:26:43;3.40;99.90
54431;DHT22;40342;52.998;5.862;2023-11-22T03:29:10;3.40;99.90
54431;DHT22;40342;52.998;5.862;2023-11-22T03:31:37;3.30;99.90
54431;DHT22;40342;52.998;5.862;2023-11-22T03:34:04;3.30;99.90
54431;DHT22;40342;52.998;5.862;2023-11-22T03:36:30;3.20;99.90
54431;DHT22;40342;52.998;5.862;2023-11-22T03:38:55;3.20;99.90
54431;DHT22;40342;52.998;5.862;2023-11-22T03:41:21;3.20;99.90
54431;DHT22;40342;52.998;5.862;2023-11-22T03:43:47;3.20;99.90
54431;DHT22;40342;52.998;5.862;2023-11-22T03:46:12;3.20;99.90
54431;DHT22;40342;52.998;5.862;2023-11-22T03:48:38;3.20;99.90
54431;DHT22;40342;52.998;5.862;2023-11-22T03:51:04;3.20;99.90
54431;DHT22;40342;52.998;5.862;2023-11-22T03:53:29;3.10;99.90
54431;DHT22;40342;52.998;5.862;2023-11-22T03:55:55;3.10;99.90
54431;DHT22;40342;52.998;5.862;2023-11-22T03:58:20;3.10;99.90
54431;DHT22;40342;52.998;5.862;2023-11-22T04:00:46;3.10;99.90
54431;DHT22;40342;52.998;5.862;2023-11-22T04:03:12;3.10;99.90
54431;DHT22;40342;52.998;5.862;2023-11-22T04:05:38;3.00;99.90
54431;DHT22;40342;52.998;5.862;2023-11-22T04:08:03;3.00;99.90
54431;DHT22;40342;52.998;5.862;2023-11-22T04:10:29;3.00;99.90
54431;DHT22;40342;52.998;5.862;2023-11-22T04:12:56;2.90;99.90
54431;DHT22;40342;52.998;5.862;2023-11-22T04:15:22;2.90;99.90
54431;DHT22;40342;52.998;5.862;2023-11-22T04:17:47;2.90;99.90
54431;DHT22;40342;52.998;5.862;2023-11-22T04:20:13;2.90;99.90
54431;DHT22;40342;52.998;5.862;2023-11-22T04:22:41;2.90;99.90
54431;DHT22;40342;52.998;5.862;2023-11-22T04:25:07;2.90;99.90
54431;DHT22;40342;52.998;5.862;2023-11-22T04:27:34;2.80;99.90
54431;DHT22;40342;52.998;5.862;2023-11-22T04:29:59;2.80;99.90
54431;DHT22;40342;52.998;5.862;2023-11-22T04:32:25;2.80;99.90
54431;DHT22;40342;52.998;5.862;2023-11-22T04:34:51;2.30;99.90
54431;DHT22;40342;52.998;5.862;2023-11-22T04:37:17;2.70;99.90
54431;DHT22;40342;52.998;5.862;2023-11-22T04:39:42;2.60;99.90
54431;DHT22;40342;52.998;5.862;2023-11-22T04:42:08;2.60;99.90
54431;DHT22;40342;52.998;5.862;2023-11-22T04:44:33;2.50;99.90
54431;DHT22;40342;52.998;5.862;2023-11-22T04:46:59;2.50;99.90
54431;DHT22;40342;52.998;5.862;2023-11-22T04:49:25;2.50;99.90
54431;DHT22;40342;52.998;5.862;2023-11-22T04:51:51;2.50;99.90
54431;DHT22;40342;52.998;5.862;2023-11-22T04:54:16;2.40;99.90
54431;DHT22;40342;52.998;5.862;2023-11-22T04:56:42;2.40;99.90
54431;DHT22;40342;52.998;5.862;2023-11-22T04:59:11;2.40;99.90
54431;DHT22;40342;52.998;5.862;2023-11-22T05:01:38;2.40;99.90
54431;DHT22;40342;52.998;5.862;2023-11-22T05:04:03;2.40;99.90
54431;DHT22;40342;52.998;5.862;2023-11-22T05:06:29;2.40;99.90
54431;DHT22;40342;52.998;5.862;2023-11-22T05:08:55;2.50;99.90
54431;DHT22;40342;52.998;5.862;2023-11-22T05:11:21;2.50;99.90
54431;DHT22;40342;52.998;5.862;2023-11-22T05:13:46;2.50;99.90
54431;DHT22;40342;52.998;5.862;2023-11-22T05:16:12;2.50;99.90
54431;DHT22;40342;52.998;5.862;2023-11-22T05:18:38;2.50;99.90
54431;DHT22;40342;52.998;5.862;2023-11-22T05:21:04;2.50;99.90
54431;DHT22;40342;52.998;5.862;2023-11-22T05:23:30;2.60;99.90
54431;DHT22;40342;52.998;5.862;2023-11-22T05:25:58;2.60;99.90
54431;DHT22;40342;52.998;5.862;2023-11-22T05:28:25;2.60;99.90
54431;DHT22;40342;52.998;5.862;2023-11-22T05:30:51;2.60;99.90
54431;DHT22;40342;52.998;5.862;2023-11-22T05:33:16;2.60;99.90
54431;DHT22;40342;52.998;5.862;2023-11-22T05:35:42;2.70;99.90
54431;DHT22;40342;52.998;5.862;2023-11-22T05:38:07;2.70;99.90
54431;DHT22;40342;52.998;5.862;2023-11-22T05:40:34;2.70;99.90
54431;DHT22;40342;52.998;5.862;2023-11-22T05:42:59;2.70;99.90
54431;DHT22;40342;52.998;5.862;2023-11-22T05:45:25;2.70;99.90
54431;DHT22;40342;52.998;5.862;2023-11-22T05:47:51;2.70;99.90
54431;DHT22;40342;52.998;5.862;2023-11-22T05:50:17;2.80;99.90
54431;DHT22;40342;52.998;5.862;2023-11-22T05:52:43;2.70;99.90
54431;DHT22;40342;52.998;5.862;2023-11-22T05:55:10;2.70;99.90
54431;DHT22;40342;52.998;5.862;2023-11-22T05:57:35;2.80;99.90
54431;DHT22;40342;52.998;5.862;2023-11-22T06:00:02;2.70;99.90
54431;DHT22;40342;52.998;5.862;2023-11-22T06:02:28;2.70;99.90
54431;DHT22;40342;52.998;5.862;2023-11-22T06:04:53;2.80;99.90
54431;DHT22;40342;52.998;5.862;2023-11-22T06:07:19;2.80;99.90
54431;DHT22;40342;52.998;5.862;2023-11-22T06:09:44;2.80;99.90
54431;DHT22;40342;52.998;5.862;2023-11-22T06:12:10;2.80;99.90
54431;DHT22;40342;52.998;5.862;2023-11-22T06:14:36;2.80;99.90
54431;DHT22;40342;52.998;5.862;2023-11-22T06:17:01;2.80;99.90
54431;DHT22;40342;52.998;5.862;2023-11-22T06:19:28;2.90;99.90
54431;DHT22;40342;52.998;5.862;2023-11-22T06:21:54;2.80;99.90
54431;DHT22;40342;52.998;5.862;2023-11-22T06:24:19;2.90;99.90
54431;DHT22;40342;52.998;5.862;2023-11-22T06:26:45;2.90;99.90
54431;DHT22;40342;52.998;5.862;2023-11-22T06:29:13;2.90;99.90
54431;DHT22;40342;52.998;5.862;2023-11-22T06:31:40;2.90;99.90
54431;DHT22;40342;52.998;5.862;2023-11-22T06:34:05;2.90;99.90
54431;DHT22;40342;52.998;5.862;2023-11-22T06:36:31;2.90;99.90
54431;DHT22;40342;52.998;5.862;2023-11-22T06:38:57;2.80;99.90
54431;DHT22;40342;52.998;5.862;2023-11-22T06:41:22;2.90;99.90
54431;DHT22;40342;52.998;5.862;2023-11-22T06:43:48;2.80;99.90
54431;DHT22;40342;52.998;5.862;2023-11-22T06:46:13;2.80;99.90
54431;DHT22;40342;52.998;5.862;2023-11-22T06:48:42;2.80;99.90
54431;DHT22;40342;52.998;5.862;2023-11-22T06:51:09;2.80;99.90
54431;DHT22;40342;52.998;5.862;2023-11-22T06:53:35;2.80;99.90
54431;DHT22;40342;52.998;5.862;2023-11-22T06:56:01;2.80;99.90
54431;DHT22;40342;52.998;5.862;2023-11-22T06:58:27;2.90;99.90
54431;DHT22;40342;52.998;5.862;2023-11-22T07:00:52;2.80;99.90
54431;DHT22;40342;52.998;5.862;2023-11-22T07:03:18;2.90;99.90
54431;DHT22;40342;52.998;5.862;2023-11-22T07:05:44;2.90;99.90
54431;DHT22;40342;52.998;5.862;2023-11-22T07:08:09;2.80;99.90
54431;DHT22;40342;52.998;5.862;2023-11-22T07:10:36;2.90;99.90
54431;DHT22;40342;52.998;5.862;2023-11-22T07:13:02;2.90;99.90
54431;DHT22;40342;52.998;5.862;2023-11-22T07:15:28;2.80;99.90
54431;DHT22;40342;52.998;5.862;2023-11-22T07:17:54;2.80;99.90
54431;DHT22;40342;52.998;5.862;2023-11-22T07:20:22;2.80;99.90
54431;DHT22;40342;52.998;5.862;2023-11-22T07:22:49;2.80;99.90
54431;DHT22;40342;52.998;5.862;2023-11-22T07:25:20;2.80;99.90
54431;DHT22;40342;52.998;5.862;2023-11-22T07:27:50;2.80;99.90
54431;DHT22;40342;52.998;5.862;2023-11-22T07:30:16;2.80;99.90
54431;DHT22;40342;52.998;5.862;2023-11-22T07:32:44;2.80;99.90
54431;DHT22;40342;52.998;5.862;2023-11-22T07:35:10;2.80;99.90
54431;DHT22;40342;52.998;5.862;2023-11-22T07:37:40;2.80;99.90
54431;DHT22;40342;52.998;5.862;2023-11-22T07:40:08;2.80;99.90
54431;DHT22;40342;52.998;5.862;2023-11-22T07:42:35;2.80;99.90
54431;DHT22;40342;52.998;5.862;2023-11-22T07:45:01;2.80;99.90
54431;DHT22;40342;52.998;5.862;2023-11-22T07:47:27;2.80;99.90
54431;DHT22;40342;52.998;5.862;2023-11-22T07:49:54;2.80;99.90
54431;DHT22;40342;52.998;5.862;2023-11-22T07:52:21;2.90;99.90
54431;DHT22;40342;52.998;5.862;2023-11-22T07:54:47;2.90;99.90
54431;DHT22;40342;52.998;5.862;2023-11-22T07:57:13;2.90;99.90
54431;DHT22;40342;52.998;5.862;2023-11-22T07:59:39;2.90;99.90
54431;DHT22;40342;52.998;5.862;2023-11-22T08:02:06;2.90;99.90
54431;DHT22;40342;52.998;5.862;2023-11-22T08:04:37;2.90;99.90
54431;DHT22;40342;52.998;5.862;2023-11-22T08:07:06;2.90;99.90
54431;DHT22;40342;52.998;5.862;2023-11-22T08:09:32;3.00;99.90
54431;DHT22;40342;52.998;5.862;2023-11-22T08:11:58;3.00;99.90
54431;DHT22;40342;52.998;5.862;2023-11-22T08:14:26;3.00;99.90
54431;DHT22;40342;52.998;5.862;2023-11-22T08:16:53;3.00;99.90
54431;DHT22;40342;52.998;5.862;2023-11-22T08:19:19;3.10;99.90
54431;DHT22;40342;52.998;5.862;2023-11-22T08:21:44;3.10;99.90
54431;DHT22;40342;52.998;5.862;2023-11-22T08:24:10;3.10;99.90
54431;DHT22;40342;52.998;5.862;2023-11-22T08:26:38;3.10;99.90
54431;DHT22;40342;52.998;5.862;2023-11-22T08:29:04;3.20;99.90
54431;DHT22;40342;52.998;5.862;2023-11-22T08:31:30;3.20;99.90
54431;DHT22;40342;52.998;5.862;2023-11-22T08:33:56;3.20;99.90
54431;DHT22;40342;52.998;5.862;2023-11-22T08:36:22;3.20;99.90
54431;DHT22;40342;52.998;5.862;2023-11-22T08:38:49;3.20;99.90
54431;DHT22;40342;52.998;5.862;2023-11-22T08:41:14;3.30;99.90
54431;DHT22;40342;52.998;5.862;2023-11-22T08:43:41;3.30;99.90
54431;DHT22;40342;52.998;5.862;2023-11-22T08:46:07;3.30;99.90
54431;DHT22;40342;52.998;5.862;2023-11-22T08:48:34;3.30;99.90
54431;DHT22;40342;52.998;5.862;2023-11-22T08:51:00;3.30;99.90
54431;DHT22;40342;52.998;5.862;2023-11-22T08:53:26;3.40;99.90
54431;DHT22;40342;52.998;5.862;2023-11-22T08:55:52;3.40;99.90
54431;DHT22;40342;52.998;5.862;2023-11-22T08:58:20;3.40;99.90
54431;DHT22;40342;52.998;5.862;2023-11-22T09:00:46;3.40;99.90
54431;DHT22;40342;52.998;5.862;2023-11-22T09:03:12;3.40;99.90
54431;DHT22;40342;52.998;5.862;2023-11-22T09:05:39;3.40;99.90
54431;DHT22;40342;52.998;5.862;2023-11-22T09:08:05;3.40;99.90
54431;DHT22;40342;52.998;5.862;2023-11-22T09:10:31;3.50;99.90
54431;DHT22;40342;52.998;5.862;2023-11-22T09:12:57;3.50;99.90
54431;DHT22;40342;52.998;5.862;2023-11-22T09:15:24;3.50;99.90
54431;DHT22;40342;52.998;5.862;2023-11-22T09:17:51;3.50;99.90
54431;DHT22;40342;52.998;5.862;2023-11-22T09:20:19;3.50;99.90
54431;DHT22;40342;52.998;5.862;2023-11-22T09:22:54;3.50;99.90
54431;DHT22;40342;52.998;5.862;2023-11-22T09:25:24;3.50;99.90
54431;DHT22;40342;52.998;5.862;2023-11-22T09:27:52;3.60;99.90
54431;DHT22;40342;52.998;5.862;2023-11-22T09:30:21;3.60;99.90
54431;DHT22;40342;52.998;5.862;2023-11-22T09:33:11;3.60;99.90
54431;DHT22;40342;52.998;5.862;2023-11-22T09:35:39;3.60;99.90
54431;DHT22;40342;52.998;5.862;2023-11-22T09:38:07;3.60;99.90
54431;DHT22;40342;52.998;5.862;2023-11-22T09:40:47;3.60;99.90
54431;DHT22;40342;52.998;5.862;2023-11-22T09:43:15;3.60;99.90
54431;DHT22;40342;52.998;5.862;2023-11-22T09:45:44;3.60;99.90
54431;DHT22;40342;52.998;5.862;2023-11-22T09:48:20;3.60;99.90
54431;DHT22;40342;52.998;5.862;2023-11-22T09:50:57;3.60;99.90
54431;DHT22;40342;52.998;5.862;2023-11-22T09:53:36;3.60;99.90
54431;DHT22;40342;52.998;5.862;2023-11-22T09:56:04;3.60;99.90
54431;DHT22;40342;52.998;5.862;2023-11-22T09:58:33;3.60;99.90
54431;DHT22;40342;52.998;5.862;2023-11-22T10:01:00;3.70;99.90
54431;DHT22;40342;52.998;5.862;2023-11-22T10:03:27;3.70;99.90
54431;DHT22;40342;52.998;5.862;2023-11-22T10:05:58;3.70;99.90
54431;DHT22;40342;52.998;5.862;2023-11-22T10:08:29;3.80;99.90
54431;DHT22;40342;52.998;5.862;2023-11-22T10:10:58;3.80;99.90
54431;DHT22;40342;52.998;5.862;2023-11-22T10:13:25;3.80;99.90
54431;DHT22;40342;52.998;5.862;2023-11-22T10:15:51;3.80;99.90
54431;DHT22;40342;52.998;5.862;2023-11-22T10:18:18;3.90;99.90
54431;DHT22;40342;52.998;5.862;2023-11-22T10:20:45;3.90;99.90
54431;DHT22;40342;52.998;5.862;2023-11-22T10:23:19;3.90;99.90
54431;DHT22;40342;52.998;5.862;2023-11-22T10:25:46;4.00;99.90
54431;DHT22;40342;52.998;5.862;2023-11-22T10:30:45;4.10;99.90
54431;DHT22;40342;52.998;5.862;2023-11-22T10:33:11;4.10;99.90
54431;DHT22;40342;52.998;5.862;2023-11-22T10:35:50;4.10;99.90
54431;DHT22;40342;52.998;5.862;2023-11-22T10:38:17;4.20;99.90
54431;DHT22;40342;52.998;5.862;2023-11-22T10:40:43;4.20;99.90
54431;DHT22;40342;52.998;5.862;2023-11-22T10:43:14;4.20;99.90
54431;DHT22;40342;52.998;5.862;2023-11-22T10:45:41;4.30;99.90
54431;DHT22;40342;52.998;5.862;2023-11-22T10:48:12;4.40;99.90
54431;DHT22;40342;52.998;5.862;2023-11-22T10:50:41;4.50;99.90
54431;DHT22;40342;52.998;5.862;2023-11-22T10:53:15;4.60;99.90
54431;DHT22;40342;52.998;5.862;2023-11-22T10:55:55;4.60;99.90
54431;DHT22;40342;52.998;5.862;2023-11-22T10:58:23;4.60;99.90
54431;DHT22;40342;52.998;5.862;2023-11-22T11:00:51;4.70;99.90
54431;DHT22;40342;52.998;5.862;2023-11-22T11:03:20;4.70;99.90
54431;DHT22;40342;52.998;5.862;2023-11-22T11:05:52;4.60;99.90
54431;DHT22;40342;52.998;5.862;2023-11-22T11:08:20;4.70;99.90
54431;DHT22;40342;52.998;5.862;2023-11-22T11:10:48;4.70;99.90
54431;DHT22;40342;52.998;5.862;2023-11-22T11:13:17;4.70;99.90
54431;DHT22;40342;52.998;5.862;2023-11-22T11:15:44;4.80;99.90
54431;DHT22;40342;52.998;5.862;2023-11-22T11:18:14;4.80;99.90
54431;DHT22;40342;52.998;5.862;2023-11-22T11:20:51;4.80;99.90
54431;DHT22;40342;52.998;5.862;2023-11-22T11:23:20;4.90;99.90
54431;DHT22;40342;52.998;5.862;2023-11-22T11:25:55;4.90;99.90
54431;DHT22;40342;52.998;5.862;2023-11-22T11:28:21;5.00;99.90
54431;DHT22;40342;52.998;5.862;2023-11-22T11:30:48;5.00;99.90
54431;DHT22;40342;52.998;5.862;2023-11-22T11:33:17;5.00;99.90
54431;DHT22;40342;52.998;5.862;2023-11-22T11:35:47;5.00;99.90
54431;DHT22;40342;52.998;5.862;2023-11-22T11:38:19;5.10;99.90
54431;DHT22;40342;52.998;5.862;2023-11-22T11:40:52;5.10;99.90
54431;DHT22;40342;52.998;5.862;2023-11-22T11:43:48;5.10;99.90
54431;DHT22;40342;52.998;5.862;2023-11-22T11:46:15;5.20;99.90
54431;DHT22;40342;52.998;5.862;2023-11-22T11:48:45;5.20;99.90
54431;DHT22;40342;52.998;5.862;2023-11-22T11:51:14;5.20;99.90
54431;DHT22;40342;52.998;5.862;2023-11-22T11:53:41;5.30;99.90
54431;DHT22;40342;52.998;5.862;2023-11-22T11:56:07;5.30;99.90
54431;DHT22;40342;52.998;5.862;2023-11-22T11:58:33;5.30;99.90
54431;DHT22;40342;52.998;5.862;2023-11-22T12:00:59;5.40;99.90
54431;DHT22;40342;52.998;5.862;2023-11-22T12:03:24;5.40;99.90
54431;DHT22;40342;52.998;5.862;2023-11-22T12:05:50;5.40;99.90
54431;DHT22;40342;52.998;5.862;2023-11-22T12:08:15;5.40;99.90
54431;DHT22;40342;52.998;5.862;2023-11-22T12:10:43;5.30;99.90
54431;DHT22;40342;52.998;5.862;2023-11-22T12:13:08;5.30;99.90
54431;DHT22;40342;52.998;5.862;2023-11-22T12:15:34;5.30;99.90
54431;DHT22;40342;52.998;5.862;2023-11-22T12:18:01;5.30;99.90
54431;DHT22;40342;52.998;5.862;2023-11-22T12:20:27;5.30;99.90
54431;DHT22;40342;52.998;5.862;2023-11-22T12:22:58;5.30;99.90
54431;DHT22;40342;52.998;5.862;2023-11-22T12:25:27;5.30;99.90
54431;DHT22;40342;52.998;5.862;2023-11-22T12:27:56;5.40;99.90
54431;DHT22;40342;52.998;5.862;2023-11-22T12:30:29;5.30;99.90
54431;DHT22;40342;52.998;5.862;2023-11-22T12:32:59;5.30;99.90
54431;DHT22;40342;52.998;5.862;2023-11-22T12:35:25;5.30;99.90
54431;DHT22;40342;52.998;5.862;2023-11-22T12:37:51;5.40;99.90
54431;DHT22;40342;52.998;5.862;2023-11-22T12:40:20;5.30;99.90
54431;DHT22;40342;52.998;5.862;2023-11-22T12:42:52;5.30;99.90
54431;DHT22;40342;52.998;5.862;2023-11-22T12:45:26;5.30;99.90
54431;DHT22;40342;52.998;5.862;2023-11-22T12:47:54;5.40;99.90
54431;DHT22;40342;52.998;5.862;2023-11-22T12:52:59;5.30;99.90
54431;DHT22;40342;52.998;5.862;2023-11-22T12:55:32;5.30;99.90
54431;DHT22;40342;52.998;5.862;2023-11-22T12:58:01;5.40;99.90
54431;DHT22;40342;52.998;5.862;2023-11-22T13:00:31;5.30;99.90
54431;DHT22;40342;52.998;5.862;2023-11-22T13:02:58;5.30;99.90
54431;DHT22;40342;52.998;5.862;2023-11-22T13:05:24;5.30;99.90
54431;DHT22;40342;52.998;5.862;2023-11-22T13:07:49;5.30;99.90
54431;DHT22;40342;52.998;5.862;2023-11-22T13:10:15;5.30;99.90
54431;DHT22;40342;52.998;5.862;2023-11-22T13:12:42;5.30;99.90
54431;DHT22;40342;52.998;5.862;2023-11-22T13:15:10;5.30;99.90
54431;DHT22;40342;52.998;5.862;2023-11-22T13:17:40;5.30;99.90
54431;DHT22;40342;52.998;5.862;2023-11-22T13:20:09;5.30;99.90
54431;DHT22;40342;52.998;5.862;2023-11-22T13:22:42;5.30;99.90
54431;DHT22;40342;52.998;5.862;2023-11-22T13:25:08;5.20;99.90
54431;DHT22;40342;52.998;5.862;2023-11-22T13:27:36;5.30;99.90
54431;DHT22;40342;52.998;5.862;2023-11-22T13:30:02;5.30;99.90
54431;DHT22;40342;52.998;5.862;2023-11-22T13:32:28;5.20;99.90
54431;DHT22;40342;52.998;5.862;2023-11-22T13:34:53;5.30;99.90
54431;DHT22;40342;52.998;5.862;2023-11-22T13:37:24;5.20;99.90
54431;DHT22;40342;52.998;5.862;2023-11-22T13:39:49;5.30;99.90
54431;DHT22;40342;52.998;5.862;2023-11-22T13:42:15;5.30;99.90
54431;DHT22;40342;52.998;5.862;2023-11-22T13:44:41;5.20;99.90
54431;DHT22;40342;52.998;5.862;2023-11-22T13:47:07;5.20;99.90
54431;DHT22;40342;52.998;5.862;2023-11-22T13:49:33;5.20;99.90
54431;DHT22;40342;52.998;5.862;2023-11-22T13:51:59;5.30;99.90
54431;DHT22;40342;52.998;5.862;2023-11-22T13:54:24;5.30;99.90
54431;DHT22;40342;52.998;5.862;2023-11-22T13:56:50;5.30;99.90
54431;DHT22;40342;52.998;5.862;2023-11-22T13:59:17;5.20;99.90
54431;DHT22;40342;52.998;5.862;2023-11-22T14:01:42;5.30;99.90
54431;DHT22;40342;52.998;5.862;2023-11-22T14:04:08;5.30;99.90
54431;DHT22;40342;52.998;5.862;2023-11-22T14:06:33;5.30;99.90
54431;DHT22;40342;52.998;5.862;2023-11-22T14:08:59;5.30;99.90
54431;DHT22;40342;52.998;5.862;2023-11-22T14:11:24;5.30;99.90
54431;DHT22;40342;52.998;5.862;2023-11-22T14:13:50;5.30;99.90
54431;DHT22;40342;52.998;5.862;2023-11-22T14:16:15;5.30;99.90
54431;DHT22;40342;52.998;5.862;2023-11-22T14:18:41;5.30;99.90
54431;DHT22;40342;52.998;5.862;2023-11-22T14:21:07;5.30;99.90
54431;DHT22;40342;52.998;5.862;2023-11-22T14:23:32;5.30;99.90
54431;DHT22;40342;52.998;5.862;2023-11-22T14:25:58;5.30;99.90
54431;DHT22;40342;52.998;5.862;2023-11-22T14:28:24;5.30;99.90
54431;DHT22;40342;52.998;5.862;2023-11-22T14:30:49;5.30;99.90
54431;DHT22;40342;52.998;5.862;2023-11-22T14:33:20;5.30;99.90
54431;DHT22;40342;52.998;5.862;2023-11-22T14:35:45;5.30;99.90
54431;DHT22;40342;52.998;5.862;2023-11-22T14:38:11;5.30;99.90
54431;DHT22;40342;52.998;5.862;2023-11-22T14:40:38;5.30;99.90
54431;DHT22;40342;52.998;5.862;2023-11-22T14:43:06;5.30;99.90
54431;DHT22;40342;52.998;5.862;2023-11-22T14:45:31;5.40;99.90
54431;DHT22;40342;52.998;5.862;2023-11-22T14:47:58;5.40;99.90
54431;DHT22;40342;52.998;5.862;2023-11-22T14:50:24;5.40;99.90
54431;DHT22;40342;52.998;5.862;2023-11-22T14:52:53;5.30;99.90
54431;DHT22;40342;52.998;5.862;2023-11-22T14:55:19;5.30;99.90
54431;DHT22;40342;52.998;5.862;2023-11-22T14:57:46;5.40;99.90
54431;DHT22;40342;52.998;5.862;2023-11-22T15:00:13;5.40;99.90
54431;DHT22;40342;52.998;5.862;2023-11-22T15:02:40;5.30;99.90
54431;DHT22;40342;52.998;5.862;2023-11-22T15:05:08;5.30;99.90
54431;DHT22;40342;52.998;5.862;2023-11-22T15:07:38;5.30;99.90
54431;DHT22;40342;52.998;5.862;2023-11-22T15:10:10;5.30;99.90
54431;DHT22;40342;52.998;5.862;2023-11-22T15:12:36;5.30;99.90
54431;DHT22;40342;52.998;5.862;2023-11-22T15:15:02;5.30;99.90
54431;DHT22;40342;52.998;5.862;2023-11-22T15:17:28;5.40;99.90
54431;DHT22;40342;52.998;5.862;2023-11-22T15:19:54;5.40;99.90
54431;DHT22;40342;52.998;5.862;2023-11-22T15:22:20;5.40;99.90
54431;DHT22;40342;52.998;5.862;2023-11-22T15:24:46;5.30;99.90
54431;DHT22;40342;52.998;5.862;2023-11-22T15:27:11;5.40;99.90
54431;DHT22;40342;52.998;5.862;2023-11-22T15:29:37;5.40;99.90
54431;DHT22;40342;52.998;5.862;2023-11-22T15:32:03;5.40;99.90
54431;DHT22;40342;52.998;5.862;2023-11-22T15:34:30;5.40;99.90
54431;DHT22;40342;52.998;5.862;2023-11-22T15:36:55;5.40;99.90
54431;DHT22;40342;52.998;5.862;2023-11-22T15:39:21;5.40;99.90
54431;DHT22;40342;52.998;5.862;2023-11-22T15:41:48;5.40;99.90
54431;DHT22;40342;52.998;5.862;2023-11-22T15:44:14;5.40;99.90
54431;DHT22;40342;52.998;5.862;2023-11-22T15:46:41;5.40;99.90
54431;DHT22;40342;52.998;5.862;2023-11-22T15:49:10;5.40;99.90